sensor_id;sensor_type;location;lat;lon;timestamp;temperature;humidity
35111;DHT22;21290;50.158;8.658;2022-12-07T00:01:25;4.00;99.90
35111;DHT22;21290;50.158;8.658;2022-12-07T00:03:52;4.00;99.90
35111;DHT22;21290;50.158;8.658;2022-12-07T00:06:19;4.00;99.90
35111;DHT22;21290;50.158;8.658;2022-12-07T00:08:46;4.00;99.90
35111;DHT22;21290;50.158;8.658;2022-12-07T00:11:14;4.00;99.90
35111;DHT22;21290;50.158;8.658;2022-12-07T00:13:41;4.00;99.90
35111;DHT22;21290;50.158;8.658;2022-12-07T00:16:09;4.00;99.90
35111;DHT22;21290;50.158;8.658;2022-12-07T00:18:36;4.00;99.90
35111;DHT22;21290;50.158;8.658;2022-12-07T00:21:06;4.00;99.90
35111;DHT22;21290;50.158;8.658;2022-12-07T00:23:33;4.00;99.90
35111;DHT22;21290;50.158;8.658;2022-12-07T00:26:03;4.00;99.90
35111;DHT22;21290;50.158;8.658;2022-12-07T00:28:30;4.00;99.90
35111;DHT22;21290;50.158;8.658;2022-12-07T00:31:00;3.90;99.90
35111;DHT22;21290;50.158;8.658;2022-12-07T00:33:27;3.90;99.90
35111;DHT22;21290;50.158;8.658;2022-12-07T00:35:55;3.90;99.90
35111;DHT22;21290;50.158;8.658;2022-12-07T00:38:22;3.90;99.90
35111;DHT22;21290;50.158;8.658;2022-12-07T00:40:58;3.90;99.90
35111;DHT22;21290;50.158;8.658;2022-12-07T00:43:25;3.90;99.90
35111;DHT22;21290;50.158;8.658;2022-12-07T00:45:52;3.90;99.90
35111;DHT22;21290;50.158;8.658;2022-12-07T00:48:19;3.90;99.90
35111;DHT22;21290;50.158;8.658;2022-12-07T00:50:46;3.90;99.90
35111;DHT22;21290;50.158;8.658;2022-12-07T00:53:12;3.90;99.90
35111;DHT22;21290;50.158;8.658;2022-12-07T00:55:39;3.90;99.90
35111;DHT22;21290;50.158;8.658;2022-12-07T00:58:05;3.90;99.90
35111;DHT22;21290;50.158;8.658;2022-12-07T01:00:32;3.90;99.90
35111;DHT22;21290;50.158;8.658;2022-12-07T01:02:59;3.90;99.90
35111;DHT22;21290;50.158;8.658;2022-12-07T01:05:26;3.90;99.90
35111;DHT22;21290;50.158;8.658;2022-12-07T01:07:52;3.90;99.90
35111;DHT22;21290;50.158;8.658;2022-12-07T01:10:19;3.90;99.90
35111;DHT22;21290;50.158;8.658;2022-12-07T01:12:46;3.90;99.90
35111;DHT22;21290;50.158;8.658;2022-12-07T01:15:12;3.80;99.90
35111;DHT22;21290;50.158;8.658;2022-12-07T01:17:39;3.80;99.90
35111;DHT22;21290;50.158;8.658;2022-12-07T01:20:05;3.80;99.90
35111;DHT22;21290;50.158;8.658;2022-12-07T01:22:36;3.80;99.90
35111;DHT22;21290;50.158;8.658;2022-12-07T01:25:03;3.80;99.90
35111;DHT22;21290;50.158;8.658;2022-12-07T01:27:30;3.70;99.90
35111;DHT22;21290;50.158;8.658;2022-12-07T01:29:56;3.70;99.90
35111;DHT22;21290;50.158;8.658;2022-12-07T01:32:23;3.70;99.90
35111;DHT22;21290;50.158;8.658;2022-12-07T01:34:49;3.70;99.90
35111;DHT22;21290;50.158;8.658;2022-12-07T01:37:16;3.70;99.90
35111;DHT22;21290;50.158;8.658;2022-12-07T01:39:42;3.70;99.90
35111;DHT22;21290;50.158;8.658;2022-12-07T01:42:11;3.70;99.90
35111;DHT22;21290;50.158;8.658;2022-12-07T01:45:18;3.70;99.90
35111;DHT22;21290;50.158;8.658;2022-12-07T01:47:34;3.70;99.90
35111;DHT22;21290;50.158;8.658;2022-12-07T01:50:00;3.60;99.90
35111;DHT22;21290;50.158;8.658;2022-12-07T01:52:28;3.70;99.90
35111;DHT22;21290;50.158;8.658;2022-12-07T01:55:00;3.60;99.90
35111;DHT22;21290;50.158;8.658;2022-12-07T01:57:28;3.60;99.90
35111;DHT22;21290;50.158;8.658;2022-12-07T01:59:55;3.70;99.90
35111;DHT22;21290;50.158;8.658;2022-12-07T02:02:23;3.60;99.90
35111;DHT22;21290;50.158;8.658;2022-12-07T02:04:52;3.60;99.90
35111;DHT22;21290;50.158;8.658;2022-12-07T02:07:20;3.60;99.90
35111;DHT22;21290;50.158;8.658;2022-12-07T02:09:46;3.50;99.90
35111;DHT22;21290;50.158;8.658;2022-12-07T02:12:13;3.50;99.90
35111;DHT22;21290;50.158;8.658;2022-12-07T02:14:39;3.60;99.90
35111;DHT22;21290;50.158;8.658;2022-12-07T02:30:26;3.40;99.90
35111;DHT22;21290;50.158;8.658;2022-12-07T02:33:00;3.40;99.90
35111;DHT22;21290;50.158;8.658;2022-12-07T02:38:08;3.40;99.90
35111;DHT22;21290;50.158;8.658;2022-12-07T02:40:40;3.40;99.90
35111;DHT22;21290;50.158;8.658;2022-12-07T02:43:12;3.30;99.90
35111;DHT22;21290;50.158;8.658;2022-12-07T02:45:40;3.40;99.90
35111;DHT22;21290;50.158;8.658;2022-12-07T02:48:08;3.30;99.90
35111;DHT22;21290;50.158;8.658;2022-12-07T02:50:35;3.30;99.90
35111;DHT22;21290;50.158;8.658;2022-12-07T02:53:02;3.30;99.90
35111;DHT22;21290;50.158;8.658;2022-12-07T02:55:30;3.30;99.90
35111;DHT22;21290;50.158;8.658;2022-12-07T02:58:42;3.30;99.90
35111;DHT22;21290;50.158;8.658;2022-12-07T03:01:04;3.30;99.90
35111;DHT22;21290;50.158;8.658;2022-12-07T03:03:33;3.40;99.90
35111;DHT22;21290;50.158;8.658;2022-12-07T03:11:29;3.40;99.90
35111;DHT22;21290;50.158;8.658;2022-12-07T03:14:02;3.40;99.90
35111;DHT22;21290;50.158;8.658;2022-12-07T03:16:45;3.40;99.90
35111;DHT22;21290;50.158;8.658;2022-12-07T03:19:17;3.40;99.90
35111;DHT22;21290;50.158;8.658;2022-12-07T03:21:46;3.40;99.90
35111;DHT22;21290;50.158;8.658;2022-12-07T03:24:21;3.40;99.90
35111;DHT22;21290;50.158;8.658;2022-12-07T03:26:49;3.40;99.90
35111;DHT22;21290;50.158;8.658;2022-12-07T03:29:19;3.40;99.90
35111;DHT22;21290;50.158;8.658;2022-12-07T03:31:48;3.40;99.90
35111;DHT22;21290;50.158;8.658;2022-12-07T03:34:18;3.40;99.90
35111;DHT22;21290;50.158;8.658;2022-12-07T03:36:55;3.40;99.90
35111;DHT22;21290;50.158;8.658;2022-12-07T03:39:34;3.40;99.90
35111;DHT22;21290;50.158;8.658;2022-12-07T03:42:03;3.40;99.90
35111;DHT22;21290;50.158;8.658;2022-12-07T03:44:32;3.40;99.90
35111;DHT22;21290;50.158;8.658;2022-12-07T03:47:06;3.40;99.90
35111;DHT22;21290;50.158;8.658;2022-12-07T03:49:41;3.40;99.90
35111;DHT22;21290;50.158;8.658;2022-12-07T03:52:22;3.40;99.90
35111;DHT22;21290;50.158;8.658;2022-12-07T03:54:57;3.40;99.90
35111;DHT22;21290;50.158;8.658;2022-12-07T03:57:25;3.40;99.90
35111;DHT22;21290;50.158;8.658;2022-12-07T03:59:54;3.40;99.90
35111;DHT22;21290;50.158;8.658;2022-12-07T04:02:21;3.40;99.90
35111;DHT22;21290;50.158;8.658;2022-12-07T04:04:48;3.40;99.90
35111;DHT22;21290;50.158;8.658;2022-12-07T04:07:15;3.40;99.90
35111;DHT22;21290;50.158;8.658;2022-12-07T04:09:41;3.40;99.90
35111;DHT22;21290;50.158;8.658;2022-12-07T04:12:08;3.40;99.90
35111;DHT22;21290;50.158;8.658;2022-12-07T04:14:34;3.50;99.90
35111;DHT22;21290;50.158;8.658;2022-12-07T04:17:01;3.50;99.90
35111;DHT22;21290;50.158;8.658;2022-12-07T04:19:29;3.50;99.90
35111;DHT22;21290;50.158;8.658;2022-12-07T04:21:56;3.50;99.90
35111;DHT22;21290;50.158;8.658;2022-12-07T04:24:23;3.60;99.90
35111;DHT22;21290;50.158;8.658;2022-12-07T04:26:49;3.60;99.90
35111;DHT22;21290;50.158;8.658;2022-12-07T04:29:16;3.60;99.90
35111;DHT22;21290;50.158;8.658;2022-12-07T04:31:43;3.60;99.90
35111;DHT22;21290;50.158;8.658;2022-12-07T04:34:10;3.70;99.90
35111;DHT22;21290;50.158;8.658;2022-12-07T04:36:37;3.60;99.90
35111;DHT22;21290;50.158;8.658;2022-12-07T04:39:05;3.70;99.90
35111;DHT22;21290;50.158;8.658;2022-12-07T04:41:32;3.70;99.90
35111;DHT22;21290;50.158;8.658;2022-12-07T04:43:59;3.70;99.90
35111;DHT22;21290;50.158;8.658;2022-12-07T04:46:27;3.70;99.90
35111;DHT22;21290;50.158;8.658;2022-12-07T04:48:54;3.70;99.90
35111;DHT22;21290;50.158;8.658;2022-12-07T04:51:21;3.70;99.90
35111;DHT22;21290;50.158;8.658;2022-12-07T04:53:48;3.70;99.90
35111;DHT22;21290;50.158;8.658;2022-12-07T04:56:15;3.70;99.90
35111;DHT22;21290;50.158;8.658;2022-12-07T04:58:43;3.70;99.90
35111;DHT22;21290;50.158;8.658;2022-12-07T05:01:10;3.70;99.90
35111;DHT22;21290;50.158;8.658;2022-12-07T05:03:37;3.70;99.90
35111;DHT22;21290;50.158;8.658;2022-12-07T05:06:04;3.70;99.90
35111;DHT22;21290;50.158;8.658;2022-12-07T05:08:38;3.70;99.90
35111;DHT22;21290;50.158;8.658;2022-12-07T05:11:05;3.70;99.90
35111;DHT22;21290;50.158;8.658;2022-12-07T05:13:32;3.70;99.90
35111;DHT22;21290;50.158;8.658;2022-12-07T05:15:59;3.70;99.90
35111;DHT22;21290;50.158;8.658;2022-12-07T05:18:25;3.70;99.90
35111;DHT22;21290;50.158;8.658;2022-12-07T05:20:52;3.70;99.90
35111;DHT22;21290;50.158;8.658;2022-12-07T05:23:19;3.80;99.90
35111;DHT22;21290;50.158;8.658;2022-12-07T05:25:46;3.80;99.90
35111;DHT22;21290;50.158;8.658;2022-12-07T05:28:12;3.80;99.90
35111;DHT22;21290;50.158;8.658;2022-12-07T05:30:39;3.80;99.90
35111;DHT22;21290;50.158;8.658;2022-12-07T05:33:05;3.80;99.90
35111;DHT22;21290;50.158;8.658;2022-12-07T05:35:32;3.80;99.90
35111;DHT22;21290;50.158;8.658;2022-12-07T05:37:58;3.80;99.90
35111;DHT22;21290;50.158;8.658;2022-12-07T05:40:25;3.90;99.90
35111;DHT22;21290;50.158;8.658;2022-12-07T05:42:51;3.90;99.90
35111;DHT22;21290;50.158;8.658;2022-12-07T05:45:18;3.90;99.90
35111;DHT22;21290;50.158;8.658;2022-12-07T05:47:44;3.90;99.90
35111;DHT22;21290;50.158;8.658;2022-12-07T05:50:11;3.90;99.90
35111;DHT22;21290;50.158;8.658;2022-12-07T05:52:38;3.90;99.90
35111;DHT22;21290;50.158;8.658;2022-12-07T05:55:04;4.00;99.90
35111;DHT22;21290;50.158;8.658;2022-12-07T05:57:33;3.90;99.90
35111;DHT22;21290;50.158;8.658;2022-12-07T05:59:59;4.00;99.90
35111;DHT22;21290;50.158;8.658;2022-12-07T06:02:26;4.00;99.90
35111;DHT22;21290;50.158;8.658;2022-12-07T06:04:53;4.00;99.90
35111;DHT22;21290;50.158;8.658;2022-12-07T06:07:20;4.00;99.90
35111;DHT22;21290;50.158;8.658;2022-12-07T06:09:46;4.00;99.90
35111;DHT22;21290;50.158;8.658;2022-12-07T06:12:13;4.00;99.90
35111;DHT22;21290;50.158;8.658;2022-12-07T06:14:59;4.00;99.90
35111;DHT22;21290;50.158;8.658;2022-12-07T06:17:25;4.00;99.90
35111;DHT22;21290;50.158;8.658;2022-12-07T06:19:52;4.00;99.90
35111;DHT22;21290;50.158;8.658;2022-12-07T06:22:18;4.00;99.90
35111;DHT22;21290;50.158;8.658;2022-12-07T06:24:45;4.00;99.90
35111;DHT22;21290;50.158;8.658;2022-12-07T06:27:12;4.10;99.90
35111;DHT22;21290;50.158;8.658;2022-12-07T06:29:38;4.00;99.90
35111;DHT22;21290;50.158;8.658;2022-12-07T06:32:05;4.10;99.90
35111;DHT22;21290;50.158;8.658;2022-12-07T06:34:32;4.10;99.90
35111;DHT22;21290;50.158;8.658;2022-12-07T06:36:58;4.10;99.90
35111;DHT22;21290;50.158;8.658;2022-12-07T06:39:26;4.10;99.90
35111;DHT22;21290;50.158;8.658;2022-12-07T06:41:53;4.00;99.90
35111;DHT22;21290;50.158;8.658;2022-12-07T06:44:20;4.00;99.90
35111;DHT22;21290;50.158;8.658;2022-12-07T06:46:48;4.00;99.90
35111;DHT22;21290;50.158;8.658;2022-12-07T06:49:15;4.00;99.90
35111;DHT22;21290;50.158;8.658;2022-12-07T06:51:41;4.10;99.90
35111;DHT22;21290;50.158;8.658;2022-12-07T06:54:09;4.10;99.90
35111;DHT22;21290;50.158;8.658;2022-12-07T06:56:36;4.10;99.90
35111;DHT22;21290;50.158;8.658;2022-12-07T06:59:02;4.10;99.90
35111;DHT22;21290;50.158;8.658;2022-12-07T07:01:29;4.20;99.90
35111;DHT22;21290;50.158;8.658;2022-12-07T07:03:56;4.20;99.90
35111;DHT22;21290;50.158;8.658;2022-12-07T07:06:22;4.20;99.90
35111;DHT22;21290;50.158;8.658;2022-12-07T07:08:49;4.10;99.90
35111;DHT22;21290;50.158;8.658;2022-12-07T07:11:16;4.20;99.90
35111;DHT22;21290;50.158;8.658;2022-12-07T07:13:42;4.20;99.90
35111;DHT22;21290;50.158;8.658;2022-12-07T07:16:09;4.10;99.90
35111;DHT22;21290;50.158;8.658;2022-12-07T07:18:36;4.10;99.90
35111;DHT22;21290;50.158;8.658;2022-12-07T07:21:02;4.10;99.90
35111;DHT22;21290;50.158;8.658;2022-12-07T07:23:29;4.20;99.90
35111;DHT22;21290;50.158;8.658;2022-12-07T07:25:56;4.20;99.90
35111;DHT22;21290;50.158;8.658;2022-12-07T07:28:22;4.10;99.90
35111;DHT22;21290;50.158;8.658;2022-12-07T07:30:49;4.10;99.90
35111;DHT22;21290;50.158;8.658;2022-12-07T07:33:15;4.00;99.90
35111;DHT22;21290;50.158;8.658;2022-12-07T07:35:42;4.00;99.90
35111;DHT22;21290;50.158;8.658;2022-12-07T07:38:09;4.10;99.90
35111;DHT22;21290;50.158;8.658;2022-12-07T07:40:35;4.10;99.90
35111;DHT22;21290;50.158;8.658;2022-12-07T07:43:02;4.10;99.90
35111;DHT22;21290;50.158;8.658;2022-12-07T07:45:28;4.20;99.90
35111;DHT22;21290;50.158;8.658;2022-12-07T07:47:55;4.20;99.90
35111;DHT22;21290;50.158;8.658;2022-12-07T07:50:21;4.20;99.90
35111;DHT22;21290;50.158;8.658;2022-12-07T07:52:48;4.30;99.90
35111;DHT22;21290;50.158;8.658;2022-12-07T07:55:15;4.40;99.90
35111;DHT22;21290;50.158;8.658;2022-12-07T07:57:43;4.40;99.90
35111;DHT22;21290;50.158;8.658;2022-12-07T08:00:16;4.50;99.90
35111;DHT22;21290;50.158;8.658;2022-12-07T08:02:43;4.60;99.90
35111;DHT22;21290;50.158;8.658;2022-12-07T08:05:10;4.60;99.90
35111;DHT22;21290;50.158;8.658;2022-12-07T08:07:38;4.70;99.90
35111;DHT22;21290;50.158;8.658;2022-12-07T08:10:04;4.80;99.90
35111;DHT22;21290;50.158;8.658;2022-12-07T08:12:37;4.90;99.90
35111;DHT22;21290;50.158;8.658;2022-12-07T08:15:04;5.00;99.90
35111;DHT22;21290;50.158;8.658;2022-12-07T08:17:30;5.00;99.90
35111;DHT22;21290;50.158;8.658;2022-12-07T08:19:57;5.10;99.90
35111;DHT22;21290;50.158;8.658;2022-12-07T08:22:23;5.30;99.90
35111;DHT22;21290;50.158;8.658;2022-12-07T08:24:50;5.60;99.90
35111;DHT22;21290;50.158;8.658;2022-12-07T08:27:16;5.90;99.90
35111;DHT22;21290;50.158;8.658;2022-12-07T08:29:43;6.30;99.90
35111;DHT22;21290;50.158;8.658;2022-12-07T08:32:09;6.90;99.90
35111;DHT22;21290;50.158;8.658;2022-12-07T08:34:36;6.90;99.90
35111;DHT22;21290;50.158;8.658;2022-12-07T08:37:03;6.80;99.90
35111;DHT22;21290;50.158;8.658;2022-12-07T08:39:29;6.60;99.90
35111;DHT22;21290;50.158;8.658;2022-12-07T08:41:58;6.50;99.90
35111;DHT22;21290;50.158;8.658;2022-12-07T08:44:24;6.40;99.90
35111;DHT22;21290;50.158;8.658;2022-12-07T08:46:52;6.80;99.90
35111;DHT22;21290;50.158;8.658;2022-12-07T08:49:22;7.40;99.90
35111;DHT22;21290;50.158;8.658;2022-12-07T08:51:50;9.20;99.90
35111;DHT22;21290;50.158;8.658;2022-12-07T08:54:17;11.20;99.90
35111;DHT22;21290;50.158;8.658;2022-12-07T08:56:45;12.60;99.90
35111;DHT22;21290;50.158;8.658;2022-12-07T08:59:12;12.50;99.90
35111;DHT22;21290;50.158;8.658;2022-12-07T09:01:40;11.70;99.90
35111;DHT22;21290;50.158;8.658;2022-12-07T09:04:07;10.70;99.90
35111;DHT22;21290;50.158;8.658;2022-12-07T09:06:33;10.60;99.90
35111;DHT22;21290;50.158;8.658;2022-12-07T09:09:00;11.80;99.90
35111;DHT22;21290;50.158;8.658;2022-12-07T09:11:27;13.10;99.90
35111;DHT22;21290;50.158;8.658;2022-12-07T09:13:54;14.60;99.90
35111;DHT22;21290;50.158;8.658;2022-12-07T09:16:21;15.70;99.40
35111;DHT22;21290;50.158;8.658;2022-12-07T09:18:48;16.70;96.40
35111;DHT22;21290;50.158;8.658;2022-12-07T09:21:15;17.70;93.50
35111;DHT22;21290;50.158;8.658;2022-12-07T09:23:42;18.70;92.20
35111;DHT22;21290;50.158;8.658;2022-12-07T09:26:09;19.60;89.50
35111;DHT22;21290;50.158;8.658;2022-12-07T09:28:36;19.70;84.90
35111;DHT22;21290;50.158;8.658;2022-12-07T09:31:03;20.20;82.60
35111;DHT22;21290;50.158;8.658;2022-12-07T09:33:57;20.70;79.50
35111;DHT22;21290;50.158;8.658;2022-12-07T09:36:24;21.20;77.20
35111;DHT22;21290;50.158;8.658;2022-12-07T09:38:51;20.80;76.20
35111;DHT22;21290;50.158;8.658;2022-12-07T09:41:18;20.80;74.60
35111;DHT22;21290;50.158;8.658;2022-12-07T09:43:44;21.90;72.30
35111;DHT22;21290;50.158;8.658;2022-12-07T09:46:13;21.50;70.20
35111;DHT22;21290;50.158;8.658;2022-12-07T09:48:41;19.00;73.10
35111;DHT22;21290;50.158;8.658;2022-12-07T09:51:16;17.10;77.70
35111;DHT22;21290;50.158;8.658;2022-12-07T09:53:49;15.40;84.50
35111;DHT22;21290;50.158;8.658;2022-12-07T09:56:16;14.80;88.50
35111;DHT22;21290;50.158;8.658;2022-12-07T09:58:43;13.50;90.90
35111;DHT22;21290;50.158;8.658;2022-12-07T10:01:12;12.90;94.00
35111;DHT22;21290;50.158;8.658;2022-12-07T10:03:40;13.70;94.50
35111;DHT22;21290;50.158;8.658;2022-12-07T10:06:09;15.50;92.10
35111;DHT22;21290;50.158;8.658;2022-12-07T10:08:37;17.00;90.20
35111;DHT22;21290;50.158;8.658;2022-12-07T10:11:03;17.40;86.60
35111;DHT22;21290;50.158;8.658;2022-12-07T10:13:34;16.70;87.20
35111;DHT22;21290;50.158;8.658;2022-12-07T10:16:01;16.90;87.70
35111;DHT22;21290;50.158;8.658;2022-12-07T10:18:39;15.90;87.20
35111;DHT22;21290;50.158;8.658;2022-12-07T10:23:58;14.20;91.60
35111;DHT22;21290;50.158;8.658;2022-12-07T10:26:29;12.80;92.20
35111;DHT22;21290;50.158;8.658;2022-12-07T10:28:58;11.60;95.70
35111;DHT22;21290;50.158;8.658;2022-12-07T10:31:25;10.70;98.20
35111;DHT22;21290;50.158;8.658;2022-12-07T10:33:53;10.00;99.90
35111;DHT22;21290;50.158;8.658;2022-12-07T10:36:21;9.50;99.90
35111;DHT22;21290;50.158;8.658;2022-12-07T10:38:50;9.20;99.90
35111;DHT22;21290;50.158;8.658;2022-12-07T10:41:17;9.10;99.90
35111;DHT22;21290;50.158;8.658;2022-12-07T10:43:46;8.90;99.90
35111;DHT22;21290;50.158;8.658;2022-12-07T10:51:34;8.80;99.90
35111;DHT22;21290;50.158;8.658;2022-12-07T10:56:35;8.90;99.90
35111;DHT22;21290;50.158;8.658;2022-12-07T10:59:16;9.50;99.90
35111;DHT22;21290;50.158;8.658;2022-12-07T11:01:47;10.00;99.90
35111;DHT22;21290;50.158;8.658;2022-12-07T11:04:21;10.40;99.90
35111;DHT22;21290;50.158;8.658;2022-12-07T11:12:31;11.80;99.90
35111;DHT22;21290;50.158;8.658;2022-12-07T11:25:42;9.90;99.90
35111;DHT22;21290;50.158;8.658;2022-12-07T11:28:24;9.70;99.90
35111;DHT22;21290;50.158;8.658;2022-12-07T11:33:29;9.80;99.90
35111;DHT22;21290;50.158;8.658;2022-12-07T11:41:03;12.50;99.40
35111;DHT22;21290;50.158;8.658;2022-12-07T11:43:50;12.10;99.80
35111;DHT22;21290;50.158;8.658;2022-12-07T11:46:19;11.30;99.90
35111;DHT22;21290;50.158;8.658;2022-12-07T11:48:47;10.50;99.90
35111;DHT22;21290;50.158;8.658;2022-12-07T11:51:16;10.10;99.90
35111;DHT22;21290;50.158;8.658;2022-12-07T11:53:58;10.50;99.90
35111;DHT22;21290;50.158;8.658;2022-12-07T11:56:28;11.20;99.90
35111;DHT22;21290;50.158;8.658;2022-12-07T12:01:26;11.90;98.10
35111;DHT22;21290;50.158;8.658;2022-12-07T12:03:56;12.00;98.60
35111;DHT22;21290;50.158;8.658;2022-12-07T12:06:24;12.20;98.30
35111;DHT22;21290;50.158;8.658;2022-12-07T12:17:31;11.60;98.90
35111;DHT22;21290;50.158;8.658;2022-12-07T12:22:43;10.80;99.60
35111;DHT22;21290;50.158;8.658;2022-12-07T12:25:35;10.70;99.80
35111;DHT22;21290;50.158;8.658;2022-12-07T12:27:58;10.90;99.90
35111;DHT22;21290;50.158;8.658;2022-12-07T12:32:52;10.60;99.90
35111;DHT22;21290;50.158;8.658;2022-12-07T12:35:29;10.20;99.90
35111;DHT22;21290;50.158;8.658;2022-12-07T12:40:43;9.50;99.90
35111;DHT22;21290;50.158;8.658;2022-12-07T12:48:46;9.00;99.90
35111;DHT22;21290;50.158;8.658;2022-12-07T12:54:03;8.80;99.90
35111;DHT22;21290;50.158;8.658;2022-12-07T12:56:35;8.70;99.90
35111;DHT22;21290;50.158;8.658;2022-12-07T13:01:50;8.10;99.90
35111;DHT22;21290;50.158;8.658;2022-12-07T13:04:21;7.80;99.90
35111;DHT22;21290;50.158;8.658;2022-12-07T13:06:49;7.60;99.90
35111;DHT22;21290;50.158;8.658;2022-12-07T13:11:56;7.30;99.90
35111;DHT22;21290;50.158;8.658;2022-12-07T13:17:54;7.10;99.90
35111;DHT22;21290;50.158;8.658;2022-12-07T13:19:55;7.00;99.90
35111;DHT22;21290;50.158;8.658;2022-12-07T13:27:56;7.40;99.90
35111;DHT22;21290;50.158;8.658;2022-12-07T13:30:23;7.70;99.90
35111;DHT22;21290;50.158;8.658;2022-12-07T13:32:54;7.90;99.90
35111;DHT22;21290;50.158;8.658;2022-12-07T13:35:32;8.00;99.90
35111;DHT22;21290;50.158;8.658;2022-12-07T13:38:00;8.00;99.90
35111;DHT22;21290;50.158;8.658;2022-12-07T13:40:28;8.00;99.90
35111;DHT22;21290;50.158;8.658;2022-12-07T13:42:59;8.10;99.90
35111;DHT22;21290;50.158;8.658;2022-12-07T13:45:27;8.00;99.90
35111;DHT22;21290;50.158;8.658;2022-12-07T13:48:33;7.90;99.90
35111;DHT22;21290;50.158;8.658;2022-12-07T13:51:01;7.80;99.90
35111;DHT22;21290;50.158;8.658;2022-12-07T13:53:28;7.80;99.90
35111;DHT22;21290;50.158;8.658;2022-12-07T13:55:57;7.70;99.90
35111;DHT22;21290;50.158;8.658;2022-12-07T13:58:25;7.70;99.90
35111;DHT22;21290;50.158;8.658;2022-12-07T14:00:51;7.60;99.90
35111;DHT22;21290;50.158;8.658;2022-12-07T14:05:44;7.40;99.90
35111;DHT22;21290;50.158;8.658;2022-12-07T14:10:41;7.30;99.90
35111;DHT22;21290;50.158;8.658;2022-12-07T14:13:30;7.20;99.90
35111;DHT22;21290;50.158;8.658;2022-12-07T14:15:58;7.10;99.90
35111;DHT22;21290;50.158;8.658;2022-12-07T14:18:28;7.00;99.90
35111;DHT22;21290;50.158;8.658;2022-12-07T14:23:30;7.00;99.90
35111;DHT22;21290;50.158;8.658;2022-12-07T14:28:34;7.00;99.90
35111;DHT22;21290;50.158;8.658;2022-12-07T14:31:01;7.00;99.90
35111;DHT22;21290;50.158;8.658;2022-12-07T14:33:28;6.90;99.90
35111;DHT22;21290;50.158;8.658;2022-12-07T14:35:55;7.00;99.90
35111;DHT22;21290;50.158;8.658;2022-12-07T14:38:24;6.90;99.90
35111;DHT22;21290;50.158;8.658;2022-12-07T14:40:54;6.80;99.90
35111;DHT22;21290;50.158;8.658;2022-12-07T14:43:21;6.70;99.90
35111;DHT22;21290;50.158;8.658;2022-12-07T14:45:47;6.70;99.90
35111;DHT22;21290;50.158;8.658;2022-12-07T14:48:14;6.60;99.90
35111;DHT22;21290;50.158;8.658;2022-12-07T14:51:01;6.50;99.90
35111;DHT22;21290;50.158;8.658;2022-12-07T14:53:49;6.40;99.90
35111;DHT22;21290;50.158;8.658;2022-12-07T14:56:23;6.30;99.90
35111;DHT22;21290;50.158;8.658;2022-12-07T14:58:50;6.10;99.90
35111;DHT22;21290;50.158;8.658;2022-12-07T15:01:16;5.90;99.90
35111;DHT22;21290;50.158;8.658;2022-12-07T15:03:43;5.80;99.90
35111;DHT22;21290;50.158;8.658;2022-12-07T15:06:10;5.70;99.90
35111;DHT22;21290;50.158;8.658;2022-12-07T15:08:39;5.60;99.90
35111;DHT22;21290;50.158;8.658;2022-12-07T15:11:05;5.40;99.90
35111;DHT22;21290;50.158;8.658;2022-12-07T15:13:32;5.40;99.90
35111;DHT22;21290;50.158;8.658;2022-12-07T15:16:19;5.30;99.90
35111;DHT22;21290;50.158;8.658;2022-12-07T15:18:46;5.20;99.90
35111;DHT22;21290;50.158;8.658;2022-12-07T15:21:32;5.10;99.90
35111;DHT22;21290;50.158;8.658;2022-12-07T15:23:59;5.10;99.90
35111;DHT22;21290;50.158;8.658;2022-12-07T15:26:25;5.10;99.90
35111;DHT22;21290;50.158;8.658;2022-12-07T15:28:53;5.00;99.90
35111;DHT22;21290;50.158;8.658;2022-12-07T15:31:20;5.00;99.90
35111;DHT22;21290;50.158;8.658;2022-12-07T15:34:06;5.00;99.90
35111;DHT22;21290;50.158;8.658;2022-12-07T15:36:33;5.00;99.90
35111;DHT22;21290;50.158;8.658;2022-12-07T15:39:00;5.00;99.90
35111;DHT22;21290;50.158;8.658;2022-12-07T15:41:42;5.00;99.90
35111;DHT22;21290;50.158;8.658;2022-12-07T15:44:11;5.00;99.90
35111;DHT22;21290;50.158;8.658;2022-12-07T15:46:57;4.90;99.90
35111;DHT22;21290;50.158;8.658;2022-12-07T15:49:23;4.90;99.90
35111;DHT22;21290;50.158;8.658;2022-12-07T15:51:50;4.90;99.90
35111;DHT22;21290;50.158;8.658;2022-12-07T15:54:21;4.90;99.90
35111;DHT22;21290;50.158;8.658;2022-12-07T15:56:48;4.90;99.90
35111;DHT22;21290;50.158;8.658;2022-12-07T15:59:14;4.90;99.90
35111;DHT22;21290;50.158;8.658;2022-12-07T16:01:41;4.90;99.90
35111;DHT22;21290;50.158;8.658;2022-12-07T16:04:08;4.90;99.90
35111;DHT22;21290;50.158;8.658;2022-12-07T16:06:35;4.90;99.90
35111;DHT22;21290;50.158;8.658;2022-12-07T16:09:02;4.90;99.90
35111;DHT22;21290;50.158;8.658;2022-12-07T16:11:28;5.00;99.90
35111;DHT22;21290;50.158;8.658;2022-12-07T16:13:55;5.00;99.90
35111;DHT22;21290;50.158;8.658;2022-12-07T16:16:22;5.00;99.90
35111;DHT22;21290;50.158;8.658;2022-12-07T16:18:49;5.00;99.90
35111;DHT22;21290;50.158;8.658;2022-12-07T16:21:16;4.90;99.90
35111;DHT22;21290;50.158;8.658;2022-12-07T16:23:50;4.90;99.90
35111;DHT22;21290;50.158;8.658;2022-12-07T16:26:17;5.00;99.90
35111;DHT22;21290;50.158;8.658;2022-12-07T16:28:45;5.00;99.90
35111;DHT22;21290;50.158;8.658;2022-12-07T16:31:13;5.00;99.90
35111;DHT22;21290;50.158;8.658;2022-12-07T16:33:40;5.00;99.90
35111;DHT22;21290;50.158;8.658;2022-12-07T16:36:07;4.90;99.90
35111;DHT22;21290;50.158;8.658;2022-12-07T16:38:34;4.90;99.90
35111;DHT22;21290;50.158;8.658;2022-12-07T16:41:01;5.00;99.90
35111;DHT22;21290;50.158;8.658;2022-12-07T16:43:27;5.00;99.90
35111;DHT22;21290;50.158;8.658;2022-12-07T16:45:54;5.00;99.90
35111;DHT22;21290;50.158;8.658;2022-12-07T16:48:20;5.00;99.90
35111;DHT22;21290;50.158;8.658;2022-12-07T16:50:47;4.90;99.90
35111;DHT22;21290;50.158;8.658;2022-12-07T16:53:17;4.90;99.90
35111;DHT22;21290;50.158;8.658;2022-12-07T16:55:44;4.90;99.90
35111;DHT22;21290;50.158;8.658;2022-12-07T16:58:11;4.90;99.90
35111;DHT22;21290;50.158;8.658;2022-12-07T17:00:39;4.90;99.90
35111;DHT22;21290;50.158;8.658;2022-12-07T17:03:06;4.90;99.90
35111;DHT22;21290;50.158;8.658;2022-12-07T17:05:33;4.90;99.90
35111;DHT22;21290;50.158;8.658;2022-12-07T17:08:00;4.90;99.90
35111;DHT22;21290;50.158;8.658;2022-12-07T17:10:27;4.90;99.90
35111;DHT22;21290;50.158;8.658;2022-12-07T17:12:54;4.80;99.90
35111;DHT22;21290;50.158;8.658;2022-12-07T17:15:20;4.80;99.90
35111;DHT22;21290;50.158;8.658;2022-12-07T17:17:54;4.80;99.90
35111;DHT22;21290;50.158;8.658;2022-12-07T17:20:22;4.70;99.90
35111;DHT22;21290;50.158;8.658;2022-12-07T17:22:49;4.70;99.90
35111;DHT22;21290;50.158;8.658;2022-12-07T17:25:15;4.70;99.90
35111;DHT22;21290;50.158;8.658;2022-12-07T17:27:43;4.70;99.90
35111;DHT22;21290;50.158;8.658;2022-12-07T17:30:09;4.70;99.90
35111;DHT22;21290;50.158;8.658;2022-12-07T17:32:36;4.70;99.90
35111;DHT22;21290;50.158;8.658;2022-12-07T17:35:03;4.70;99.90
35111;DHT22;21290;50.158;8.658;2022-12-07T17:37:30;4.70;99.90
35111;DHT22;21290;50.158;8.658;2022-12-07T17:39:57;4.70;99.90
35111;DHT22;21290;50.158;8.658;2022-12-07T17:42:24;4.70;99.90